Tiempo atmosférico en la estación meteorológica de Amieva, Panizales, Asturias (360 m.)



Fecha
DESCASC
Temp. máxima en grados centígrados (hora)
DESCASC
Temp. mínima en grados centígrados (hora)
DESCASC
Temp. media en grados centígrados
DESCASC
Racha de viento máxima en m/sg (hora)
DESCASC
Velocidad máxima media en intervalos de 10 minutos(hora)
DESCASC
Precipitaciones diarias en mm
DESCASC
Precipitaciones de 00:00 a 06:00 en mm
DESCASC
Precipitaciones de 06:00 a 12:00 en mm
DESCASC
Precipitaciones de 12:00 a 18:00 en mm
DESCASC
Precipitaciones de 18:00 a 24:00 en mm
DESCASC
13-10-2019 23.1 (12:20) 13.6 (23:20) 18.4 21.39 (08:00) 9.17 (08:20) 0 0 0 0 0
12-10-2019 29.5 (16:20) 12.6 (00:10) 21.1 11.67 (12:20) 5 (12:20) 0.6 0 0 0 0.6
11-10-2019 25.9 (15:50) 9.2 (03:20) 17.5 6.11 (16:10) 2.78 (16:50) 0.2 0 0.2 0 0
10-10-2019 21.8 (15:50) 7 (00:00) 14.4 7.5 (16:00) 3.61 (15:00) 0 0 0 0 0
09-10-2019 20.9 (16:00) 9.6 (00:00) 15.3 6.39 (16:00) 3.06 (16:20) 0 0 0 0 0
08-10-2019 25.8 (14:20) 11.1 (00:00) 18.4 5.83 (14:30) 3.06 (15:10) 2 0 0 0.4 1.6
07-10-2019 25.7 (15:40) 8.5 (00:00) 17.1 5.28 (15:30) 3.06 (17:10) 0 0 0 0 0
06-10-2019 20.8 (17:20) 11.5 (00:00) 16.1 5.28 (17:20) 3.33 (17:40) 0 0 0 0 0
05-10-2019 17.7 (15:30) 13.4 (00:00) 15.6 3.61 (21:50) 1.94 (16:00) 0 0 0 0 0
04-10-2019 17.7 (13:30) 13.9 (00:00) 15.8 5 (14:20) 1.67 (15:30) 0.8 0 0.2 0.4 0.2
03-10-2019 25.2 (15:20) 9.4 (00:00) 17.3 6.39 (16:00) 3.33 (15:30) 0 0 0 0 0
02-10-2019 21.9 (15:50) 13.2 (00:00) 17.5 5 (17:30) 2.5 (17:30) 0 0 0 0 0
01-10-2019 24.9 (15:20) 13.9 (00:00) 19.4 6.67 (13:40) 3.33 (13:40) 0 0 0 0 0
30-09-2019 27.8 (16:00) 13.2 (00:00) 20.5 8.33 (15:10) 3.61 (15:40) 0 0 0 0 0
29-09-2019 27.9 (15:40) 10.1 (00:00) 19 5.83 (15:20) 2.78 (14:00) 0 0 0 0 0
28-09-2019 23.6 (17:10) 12.6 (00:00) 18.1 6.67 (15:40) 3.61 (15:40) 0 0 0 0 0
27-09-2019 23.1 (13:40) 12.7 (00:00) 17.9 7.22 (15:10) 3.61 (15:10) 0.2 0 0 0 0.2
26-09-2019 24 (15:10) 10.4 (00:00) 17.2 6.39 (15:20) 3.61 (16:30) 0 0 0 0 0
25-09-2019 21.9 (13:40) 10.7 (00:00) 16.3 4.72 (15:00) 2.22 (13:30) 0 0 0 0 0
24-09-2019 22.7 (03:40) 13.7 (00:00) 18.2 14.44 (03:50) 6.39 (03:50) 1.4 0.8 0.2 0.2 0.2
23-09-2019 21.9 (23:50) 10.9 (00:00) 16.4 13.06 (22:50) 6.39 (23:50) 1.4 0 0.2 0.2 1
22-09-2019 22.2 (13:40) 11.7 (00:00) 17 7.5 (15:50) 3.06 (13:30) 0.6 0.6 0 0 0
21-09-2019 25.3 (14:40) 15.1 (00:00) 20.2 16.67 (13:30) 7.22 (15:10) 0 0 0 0 0
20-09-2019 30.3 (15:40) 13.7 (00:00) 22 12.78 (21:00) 6.11 (21:00) 0 0 0 0 0
19-09-2019 24.3 (15:40) 15.9 (00:00) 20.1 6.67 (14:40) 3.61 (14:50) 0 0 0 0 0
18-09-2019 24.1 (15:10) 15.5 (00:00) 19.8 5.28 (14:50) 2.78 (14:50) 0 0 0 0 0
17-09-2019 25.6 (16:30) 15 (00:00) 20.3 5.28 (16:30) 2.78 (16:10) 3.6 0 0.2 0 3.4

Gráficas

Temp. máximas Temp. mínimas Temp. medias Precipitaciones Rachas de viento máximas Velocidades máximas media en intervalos de 10 minutos

Datos horarios

Fecha y hora oficial Temperatura (ºC) Velocidad del viento (km/h) Dirección del viento Racha (km/h) Dirección de racha Precipitación (mm) Presión (hPa) Tendencia (hPa) Humedad (%)
2019-10-16 23:00:00 18.2 23 Sudeste 50 Sur 0 -- -- 62
2019-10-16 22:00:00 18.1 18 Sudeste 47 Sur 0 -- -- 61
2019-10-16 21:00:00 17.7 17 Sudeste 54 Sudeste 0 -- -- 64
2019-10-16 20:00:00 17.5 17 Sudeste 45 Sudeste 0 -- -- 65
2019-10-16 19:00:00 16.3 15 Este 42 Sudeste 0 -- -- 72
2019-10-16 18:00:00 16.4 17 Sudeste 49 Este 0.2 -- -- 72
2019-10-16 17:00:00 17.7 23 Sudeste 53 Este 0 -- -- 62
2019-10-16 16:00:00 18.1 21 Este 52 Sudeste 0 -- -- 60
2019-10-16 15:00:00 18.6 19 Este 58 Este 0 -- -- 58
2019-10-16 14:00:00 18.5 24 Sudeste 54 Este 0 -- -- 58
2019-10-16 13:00:00 17.9 26 Sudeste 60 Sur 0 -- -- 59
2019-10-16 12:00:00 17.3 28 Sudeste 59 Sudeste 0 -- -- 60
2019-10-16 11:00:00 15.9 23 Este 52 Este 0 -- -- 63
2019-10-16 10:00:00 14.5 20 Sudeste 46 Este 0.2 -- -- 72
2019-10-16 09:00:00 13.3 19 Sudeste 49 Sudeste 0.8 -- -- 82
2019-10-16 08:00:00 13.9 23 Sudeste 44 Sur 0.2 -- -- 80
2019-10-16 07:00:00 14.9 18 Sudeste 44 Sudeste 0.2 -- -- 72
2019-10-16 06:00:00 15.5 19 Sudeste 48 Sudoeste 0 -- -- 67
2019-10-16 05:00:00 16.2 15 Sudeste 59 Este 0 -- -- 61
2019-10-16 04:00:00 15.9 18 Sudeste 56 Este 0 -- -- 61
2019-10-16 03:00:00 15.8 21 Sudeste 54 Sur 0 -- -- 62
2019-10-16 02:00:00 15.6 24 Sudeste 50 Sur 0 -- -- 61
2019-10-16 01:00:00 15.2 20 Sudeste 52 Sur 0 -- -- 62
2019-10-16 00:00:00 15 17 Sudeste 50 Sur 0 -- -- 62
2019-10-15 23:00:00 14.8 16 Sudeste 43 Este 0 -- -- 59
2019-10-15 22:00:00 13.9 13 Sudeste 37 Este 0 -- -- 68
2019-10-15 21:00:00 13.7 6 Sudeste 25 Sudeste 0 -- -- 72
2019-10-15 20:00:00 15.4 6 Sudeste 28 Sur 0 -- -- 59
2019-10-15 19:00:00 16.3 13 Sur 33 Sur 0 -- -- 56
2019-10-15 18:00:00 18.6 11 Sudeste 38 Sur 0 -- -- 48
2019-10-15 17:00:00 17.9 14 Sudeste 37 Sudeste 0 -- -- 51
2019-10-15 16:00:00 17 12 Sudeste 32 Sudeste 0 -- -- 52
2019-10-15 15:00:00 17.7 9 Sudeste 31 Sur 0 -- -- 49
2019-10-15 14:00:00 19.1 13 Sudeste 28 Sur 0.2 -- -- 48
2019-10-15 13:00:00 17.1 10 Sudeste 28 Sudeste 0 -- -- 51
2019-10-15 12:00:00 16.3 14 Sudeste 29 Sudeste 0 -- -- 51
2019-10-15 11:00:00 14 13 Sudeste 32 Sudeste 0 -- -- 56
2019-10-15 10:00:00 11.2 12 Sudeste 30 Sudeste 0 -- -- 66
2019-10-15 09:00:00 10 5 Sudeste 22 Sudeste 0 -- -- 73
2019-10-15 08:00:00 9 3 Este 15 Sur 0 -- -- 80
2019-10-15 07:00:00 8.3 6 Sudeste 12 Nordeste 0 -- -- 82
2019-10-15 06:00:00 7.8 3 Oeste 13 Nordeste 0 -- -- 86
2019-10-15 05:00:00 8.2 4 Noroeste 12 Sudoeste 0 -- -- 85
2019-10-15 04:00:00 8.2 3 Sur 12 Nordeste 0 -- -- 86
2019-10-15 03:00:00 8.2 4 Norte 10 Sudoeste 0 -- -- 86
2019-10-15 02:00:00 8.6 3 Nordeste 15 Este 0 -- -- 87
2019-10-15 01:00:00 9.5 6 Nordeste 14 Nordeste 0 -- -- 86
2019-10-15 00:00:00 9.3 3 Nordeste 17 Norte 0 -- -- 88
2019-10-14 23:00:00 9.2 3 Nordeste 5 Sudoeste 0 -- -- 97
2019-10-14 22:00:00 8.7 2 Sudoeste 8 Sudoeste 0 -- -- 95
2019-10-14 21:00:00 9.6 0 Calma 8 Norte 0 -- -- 95
2019-10-14 20:00:00 9.6 3 Nordeste 7 Sur 0 -- -- 97
2019-10-14 19:00:00 10.9 3 Nordeste 15 Nordeste 0.2 -- -- 93
2019-10-14 18:00:00 11.4 9 Nordeste 24 Norte 3.2 -- -- 83
2019-10-14 17:00:00 15.2 6 Sudeste 25 Sudeste 0 -- -- 66
2019-10-14 16:00:00 15.6 13 Sudeste 42 Sur 0 -- -- 64
2019-10-14 15:00:00 15.5 14 Sudeste 39 Sur 0.2 -- -- 71
2019-10-14 14:00:00 15 3 Sudeste 27 Sur 0 -- -- 80
2019-10-14 13:00:00 16.4 5 Sur 16 Oeste 0 -- -- 82
2019-10-14 12:00:00 12.1 5 Noroeste 11 Sudoeste 0.2 -- -- 97
2019-10-14 11:00:00 11.2 8 Sudoeste 20 Sur 1.6 -- -- 97
2019-10-14 10:00:00 11 3 Este 9 Este 2.4 -- -- 98
2019-10-14 09:00:00 11 3 Nordeste 12 Norte 2.6 -- -- 97
2019-10-14 08:00:00 12.2 6 Norte 13 Nordeste 0.6 -- -- 85
2019-10-14 07:00:00 12.9 2 Sudeste 15 Este 0 -- -- 90
2019-10-14 06:00:00 13.1 4 Este 21 Nordeste 0 -- -- 92
2019-10-14 05:00:00 14.6 8 Sudoeste 23 Este 0 -- -- 90
2019-10-14 04:00:00 14.9 4 Noroeste 16 Nordeste 0 -- -- 89
2019-10-14 03:00:00 17.5 7 Noroeste 31 Sudeste 0 -- -- 74
2019-10-14 02:00:00 18.9 15 Sur 37 Sudoeste 0 -- -- 60
2019-10-14 01:00:00 14.4 5 Este 14 Sur 0 -- -- 91
2019-10-14 00:00:00 13.7 3 Norte 6 Nordeste 0 -- -- 99
2019-10-13 23:00:00 14.4 3 Nordeste 7 Nordeste 0 -- -- 96
2019-10-13 22:00:00 15.3 2 Noroeste 7 Oeste 0 -- -- 95
2019-10-13 21:00:00 15.6 0 Calma 9 Norte 0 -- -- 93
2019-10-13 20:00:00 15.7 3 Norte 12 Oeste 0 -- -- 92
2019-10-13 19:00:00 16.9 6 Oeste 15 Oeste 0 -- -- 87
2019-10-13 18:00:00 19 3 Sur 24 Sudoeste 0 -- -- 78
2019-10-13 17:00:00 20.7 12 Sur 34 Sur 0 -- -- 61
2019-10-13 16:00:00 21.2 16 Sur 43 Sur 0 -- -- 60
2019-10-13 15:00:00 22.8 19 Sudeste 60 Sur 0 -- -- 55
2019-10-13 14:00:00 21.5 19 Sudeste 44 Sur 0 -- -- 57
2019-10-13 13:00:00 21.7 14 Sudeste 39 Sur 0 -- -- 56
2019-10-13 12:00:00 22.8 16 Sudeste 49 Este 0 -- -- 53
2019-10-13 11:00:00 21.4 21 Sudeste 49 Este 0 -- -- 53
2019-10-13 10:00:00 19.9 21 Sudeste 60 Sudeste 0 -- -- 51
2019-10-13 09:00:00 19.8 24 Sudeste 75 Sudeste 0 -- -- 49
2019-10-13 08:00:00 20.7 28 Sudeste 77 Este 0 -- -- 47
2019-10-13 07:00:00 20.7 16 Sudeste 47 Sur 0 -- -- 51
2019-10-13 06:00:00 20.5 15 Sur 43 Sudoeste 0 -- -- 53
2019-10-13 05:00:00 21.1 14 Sudeste 40 Sur 0 -- -- 53
2019-10-13 04:00:00 21.1 16 Sudoeste 49 Sudoeste 0 -- -- 54
2019-10-13 03:00:00 21.9 18 Sur 44 Sudeste 0 -- -- 53
2019-10-13 02:00:00 21.2 15 Sur 42 Sur 0 -- -- 54
2019-10-13 01:00:00 16.4 7 Este 17 Nordeste 0 -- -- 86
2019-10-13 00:00:00 14.7 8 Oeste 26 Sur 0 -- -- 99
2019-10-12 23:00:00 15.1 5 Noroeste 14 Nordeste 0.2 -- -- 98
2019-10-12 22:00:00 15.8 3 Sudoeste 23 Nordeste 0.4 -- -- 96
2019-10-12 21:00:00 15.5 3 Sudeste 10 Este 0 -- -- 97
2019-10-12 20:00:00 16.2 3 Nordeste 10 Este 0 -- -- 93
2019-10-12 19:00:00 17.8 3 Sudeste 16 Oeste 0 -- -- 87
2019-10-12 18:00:00 21 6 Sudoeste 19 Oeste 0 -- -- 73
2019-10-12 17:00:00 26.3 8 Oeste 36 Sur 0 -- -- 56
2019-10-12 16:00:00 29 13 Sur 37 Sudeste 0 -- -- 41
2019-10-12 15:00:00 26.7 8 Sudoeste 33 Sudoeste 0 -- -- 49
2019-10-12 14:00:00 23.9 13 Sudoeste 30 Sudoeste 0 -- -- 57
2019-10-12 13:00:00 25.8 13 Sur 42 Sur 0 -- -- 56
2019-10-12 12:00:00 22.3 13 Sur 32 Sur 0 -- -- 60
2019-10-12 11:00:00 19.4 7 Sudeste 30 Sudeste 0 -- -- 73
2019-10-12 10:00:00 14.1 6 Sur 18 Noroeste 0 -- -- 100
2019-10-12 09:00:00 13.5 0 Calma 7 Oeste 0 -- -- 100
2019-10-12 08:00:00 13.7 0 Calma 6 Este 0 -- -- 100
2019-10-12 07:00:00 13.9 0 Calma 5 Sudoeste 0 -- -- 100
2019-10-12 06:00:00 13.9 0 Calma 3 Sudoeste 0 -- -- 99
2019-10-12 05:00:00 14 0 Calma 5 Este 0 -- -- 99
2019-10-12 04:00:00 14.1 0 Calma 3 Sudoeste 0 -- -- 98
2019-10-12 03:00:00 14 0 Calma 3 Oeste 0 -- -- 99
2019-10-12 02:00:00 13.8 0 Calma 3 Sur 0 -- -- 100
2019-10-12 01:00:00 13.2 2 Noroeste 5 Noroeste 0 -- -- 100
2019-10-12 00:00:00 12.7 0 Calma 3 Nordeste 0 -- -- 99
2019-10-11 23:00:00 13.2 0 Calma 5 Este 0 -- -- 99
2019-10-11 22:00:00 13.5 0 Calma 4 Nordeste 0 -- -- 96
2019-10-11 21:00:00 14.4 0 Calma 5 Oeste 0 -- -- 94
2019-10-11 20:00:00 16.6 0 Calma 9 Oeste 0 -- -- 86
2019-10-11 19:00:00 21.5 2 Oeste 12 Oeste 0 -- -- 69
2019-10-11 18:00:00 24 5 Sudoeste 16 Sudoeste 0 -- -- 60
2019-10-11 17:00:00 25.4 9 Sur 22 Sudoeste 0 -- -- 57
2019-10-11 16:00:00 25.9 7 Sur 22 Sudoeste 0 -- -- 55
2019-10-11 15:00:00 24.9 7 Sudoeste 15 Sudoeste 0 -- -- 54
2019-10-11 14:00:00 23.6 5 Sudoeste 16 Sur 0 -- -- 57
2019-10-11 13:00:00 22.3 5 Sudeste 14 Este 0 -- -- 62
2019-10-11 12:00:00 20.1 4 Nordeste 15 Este 0 -- -- 71
2019-10-11 11:00:00 17.5 3 Sur 10 Norte 0 -- -- 77
2019-10-11 10:00:00 14.2 0 Calma 8 Oeste 0 -- -- 80
2019-10-11 09:00:00 11 0 Calma 6 Norte 0 -- -- 91
2019-10-11 08:00:00 10.4 0 Calma 6 Norte 0 -- -- 93
2019-10-11 07:00:00 9.8 2 Norte 10 Nordeste 0.2 -- -- 96
2019-10-11 06:00:00 9.8 3 Sudeste 7 Oeste 0 -- -- 100
2019-10-11 05:00:00 9.2 0 Calma 4 Sudeste 0 -- -- 100
2019-10-11 04:00:00 9.4 0 Calma 5 Nordeste 0 -- -- 100
2019-10-11 03:00:00 9.3 0 Calma 4 Oeste 0 -- -- 100
2019-10-11 02:00:00 9.6 0 Calma 4 Nordeste 0 -- -- 100
2019-10-11 01:00:00 10.1 0 Calma 4 Nordeste 0 -- -- 99
2019-10-11 00:00:00 10.5 0 Calma 4 Nordeste 0 -- -- 99
2019-10-10 23:00:00 11 0 Calma 4 Nordeste 0 -- -- 98
2019-10-10 22:00:00 11.5 0 Calma 4 Norte 0 -- -- 97
2019-10-10 21:00:00 12.7 3 Nordeste 5 Nordeste 0 -- -- 94
2019-10-10 20:00:00 14.4 0 Calma 5 Este 0 -- -- 87
2019-10-10 19:00:00 18.8 4 Sudoeste 16 Sudoeste 0 -- -- 72
2019-10-10 18:00:00 20.6 6 Oeste 23 Sudoeste 0 -- -- 67
2019-10-10 17:00:00 21.2 10 Oeste 21 Noroeste 0 -- -- 63
2019-10-10 16:00:00 21.6 11 Sudoeste 27 Sudoeste 0 -- -- 61
2019-10-10 15:00:00 21.2 13 Sudoeste 22 Sudoeste 0 -- -- 59
2019-10-10 14:00:00 20.9 11 Sudoeste 18 Sur 0 -- -- 62
2019-10-10 13:00:00 18.6 7 Sur 15 Sudoeste 0 -- -- 66
2019-10-10 12:00:00 15.4 5 Sudoeste 8 Sudoeste 0 -- -- 72
2019-10-10 11:00:00 12.2 4 Sudoeste 8 Sudoeste 0 -- -- 81
2019-10-10 10:00:00 8.8 0 Calma 3 Noroeste 0 -- -- 100
2019-10-10 09:00:00 7.1 2 Noroeste 4 Noroeste 0 -- -- 100
2019-10-10 08:00:00 7 0 Calma 4 Norte 0 -- -- 100
2019-10-10 07:00:00 7.3 0 Calma 4 Noroeste 0 -- -- 100
2019-10-10 06:00:00 7.8 3 Noroeste 5 Noroeste 0 -- -- 100
2019-10-10 05:00:00 8 0 Calma 4 Nordeste 0 -- -- 100
2019-10-10 04:00:00 8.2 0 Calma 4 Nordeste 0 -- -- 100
2019-10-10 03:00:00 8.7 0 Calma 4 Nordeste 0 -- -- 99
2019-10-10 02:00:00 9.3 0 Calma 4 Nordeste 0 -- -- 98
2019-10-10 01:00:00 10.3 0 Calma 4 Nordeste 0 -- -- 97
2019-10-10 00:00:00 11.4 0 Calma 4 Oeste 0 -- -- 96
2019-10-09 23:00:00 11.4 0 Calma 4 Norte 0 -- -- 95
2019-10-09 22:00:00 11.2 0 Calma 6 Norte 0 -- -- 92
2019-10-09 21:00:00 13.6 3 Nordeste 6 Noroeste 0 -- -- 88
2019-10-09 20:00:00 14.8 4 Noroeste 11 Noroeste 0 -- -- 78
2019-10-09 19:00:00 16.5 2 Sudoeste 14 Oeste 0 -- -- 71
2019-10-09 18:00:00 17 2 Sur 22 Sudoeste 0 -- -- 70
2019-10-09 17:00:00 18.9 7 Oeste 23 Oeste 0 -- -- 56
2019-10-09 16:00:00 20.9 10 Sudoeste 23 Sudoeste 0 -- -- 57
2019-10-09 15:00:00 19.8 8 Sudoeste 18 Sudoeste 0 -- -- 55
2019-10-09 14:00:00 18.8 6 Nordeste 21 Sudoeste 0 -- -- 60
2019-10-09 13:00:00 18.1 6 Sudoeste 14 Sudoeste 0 -- -- 62
2019-10-09 12:00:00 14.8 3 Sudeste 6 Sur 0 -- -- 91
2019-10-09 11:00:00 12.4 0 Calma 6 Nordeste 0 -- -- 94
2019-10-09 10:00:00 10.8 0 Calma 10 Sudoeste 0 -- -- 99
2019-10-09 09:00:00 10.7 0 Calma 8 Sudeste 0 -- -- 100
2019-10-09 08:00:00 9.6 0 Calma 4 Este 0 -- -- 100
2019-10-09 07:00:00 10.4 0 Calma 4 Norte 0 -- -- 99
2019-10-09 06:00:00 11.9 0 Calma 5 Sudoeste 0 -- -- 98
2019-10-09 05:00:00 12.2 0 Calma 10 Sudeste 0 -- -- 97
2019-10-09 04:00:00 12.4 0 Calma 6 Sudeste 0 -- -- 98
2019-10-09 03:00:00 12.3 3 Sur 7 Este 0 -- -- 97
2019-10-09 02:00:00 12.5 3 Nordeste 4 Nordeste 0 -- -- 99
2019-10-09 01:00:00 12.7 3 Nordeste 6 Norte 0 -- -- 98
2019-10-09 00:00:00 13.2 4 Nordeste 8 Norte 0.2 -- -- 95
2019-10-08 23:00:00 13.7 2 Norte 7 Oeste 0.8 -- -- 97
2019-10-08 22:00:00 14 0 Calma 4 Oeste 0.4 -- -- 98
2019-10-08 21:00:00 14.4 2 Noroeste 4 Noroeste 0 -- -- 97
2019-10-08 20:00:00 14.8 0 Calma 4 Noroeste 0 -- -- 96
2019-10-08 19:00:00 15.2 0 Calma 9 Noroeste 0.2 -- -- 94
2019-10-08 18:00:00 16.1 6 Oeste 15 Noroeste 0.2 -- -- 93
2019-10-08 17:00:00 17.1 0 Calma 12 Noroeste 0.2 -- -- 92
2019-10-08 16:00:00 18.2 4 Noroeste 19 Noroeste 0 -- -- 86
2019-10-08 15:00:00 22.3 7 Oeste 21 Noroeste 0 -- -- 74
2019-10-08 14:00:00 25.7 6 Sudoeste 15 Sudoeste 0 -- -- 62
2019-10-08 13:00:00 23.3 4 Sur 9 Sudoeste 0 -- -- 67
2019-10-08 12:00:00 20.2 4 Sur 10 Sur 0 -- -- 68
2019-10-08 11:00:00 17.1 3 Sur 6 Sudoeste 0 -- -- 78
2019-10-08 10:00:00 13.5 0 Calma 3 Sudoeste 0 -- -- 98
2019-10-08 09:00:00 11.7 3 Noroeste 6 Norte 0 -- -- 98
2019-10-08 08:00:00 11.1 0 Calma 5 Noroeste 0 -- -- 98
2019-10-08 07:00:00 11.8 2 Noroeste 6 Oeste 0 -- -- 96
2019-10-08 06:00:00 11.6 0 Calma 4 Nordeste 0 -- -- 96
2019-10-08 05:00:00 11.9 2 Norte 5 Noroeste 0 -- -- 95
2019-10-08 04:00:00 11.7 0 Calma 4 Sur 0 -- -- 96
2019-10-08 03:00:00 11.5 0 Calma 3 Noroeste 0 -- -- 96
2019-10-08 02:00:00 11.9 2 Oeste 5 Norte 0 -- -- 94
2019-10-08 01:00:00 12.3 3 Oeste 5 Sudoeste 0 -- -- 92
2019-10-08 00:00:00 12.1 0 Calma 3 Sudoeste 0 -- -- 92
2019-10-07 23:00:00 12.8 0 Calma 4 Sudoeste 0 -- -- 91
2019-10-07 22:00:00 13.6 0 Calma 4 Norte 0 -- -- 89
2019-10-07 21:00:00 14.5 0 Calma 5 Norte 0 -- -- 87
2019-10-07 20:00:00 16.7 2 Nordeste 5 Nordeste 0 -- -- 80
2019-10-07 19:00:00 22.3 0 Calma 16 Oeste 0 -- -- 59
2019-10-07 18:00:00 24.3 7 Sudoeste 19 Sudoeste 0 -- -- 55
2019-10-07 17:00:00 25.1 10 Sudoeste 18 Sudoeste 0 -- -- 49
2019-10-07 16:00:00 25.7 9 Sudoeste 19 Sur 0 -- -- 46
2019-10-07 15:00:00 24.9 8 Sur 17 Sudoeste 0 -- -- 56
2019-10-07 14:00:00 23.2 7 Sudoeste 13 Sur 0 -- -- 48
2019-10-07 13:00:00 20.8 4 Sur 9 Sur 0 -- -- 45
2019-10-07 12:00:00 17.7 3 Sur 6 Oeste 0 -- -- 59
2019-10-07 11:00:00 14.2 3 Oeste 10 Sudoeste 0 -- -- 60
2019-10-07 10:00:00 10.1 0 Calma 4 Nordeste 0 -- -- 89
2019-10-07 09:00:00 8.6 0 Calma 5 Norte 0 -- -- 91
2019-10-07 08:00:00 8.7 2 Nordeste 5 Este 0 -- -- 93
2019-10-07 07:00:00 9.1 0 Calma 6 Nordeste 0 -- -- 93
2019-10-07 06:00:00 9.6 2 Nordeste 5 Noroeste 0 -- -- 96
2019-10-07 05:00:00 10.4 3 Nordeste 7 Nordeste 0 -- -- 99
2019-10-07 04:00:00 10.9 3 Nordeste 5 Nordeste 0 -- -- 100
2019-10-07 03:00:00 11.5 3 Nordeste 5 Norte 0 -- -- 99
2019-10-07 02:00:00 12.3 0 Calma 5 Nordeste 0 -- -- 99
2019-10-07 01:00:00 12.9 2 Nordeste 5 Nordeste 0 -- -- 98
2019-10-07 00:00:00 14.4 0 Calma 4 Noroeste 0 -- -- 95
2019-10-06 23:00:00 14.7 0 Calma 4 Sudeste 0 -- -- 95
2019-10-06 22:00:00 14.9 2 Norte 11 Noroeste 0 -- -- 94
2019-10-06 21:00:00 15.4 2 Norte 8 Noroeste 0 -- -- 93
2019-10-06 20:00:00 16.1 0 Calma 9 Oeste 0 -- -- 89
2019-10-06 19:00:00 17 4 Norte 17 Oeste 0 -- -- 85
2019-10-06 18:00:00 20 8 Oeste 19 Noroeste 0 -- -- 74
2019-10-06 17:00:00 20.6 8 Oeste 18 Oeste 0 -- -- 72
2019-10-06 16:00:00 19.3 5 Sudoeste 13 Sudoeste 0 -- -- 77
2019-10-06 15:00:00 19.3 6 Sur 9 Sudoeste 0 -- -- 78
2019-10-06 14:00:00 16.7 2 Sur 9 Sudoeste 0 -- -- 92
2019-10-06 13:00:00 16.5 4 Sudoeste 9 Oeste 0 -- -- 93
2019-10-06 12:00:00 15.6 4 Oeste 9 Noroeste 0 -- -- 92
2019-10-06 11:00:00 14.7 0 Calma 4 Sudeste 0 -- -- 97
2019-10-06 10:00:00 14.2 0 Calma 6 Noroeste 0 -- -- 97
2019-10-06 09:00:00 13.7 0 Calma 6 Sudoeste 0 -- -- 97
2019-10-06 08:00:00 13.6 0 Calma 7 Noroeste 0 -- -- 96
2019-10-06 07:00:00 13.5 0 Calma 7 Oeste 0 -- -- 95
2019-10-06 06:00:00 13.8 4 Norte 8 Norte 0 -- -- 93
2019-10-06 05:00:00 13.5 4 Nordeste 6 Nordeste 0 -- -- 93
2019-10-06 04:00:00 13.1 2 Sur 10 Sudeste 0 -- -- 96
2019-10-06 03:00:00 12.3 3 Noroeste 5 Oeste 0 -- -- 100
2019-10-06 02:00:00 11.5 2 Este 5 Nordeste 0 -- -- 100
2019-10-06 01:00:00 12.1 3 Norte 6 Norte 0 -- -- 99
2019-10-06 00:00:00 13.6 5 Nordeste 9 Este 0 -- -- 95
2019-10-05 23:00:00 14.5 3 Este 10 Oeste 0 -- -- 95
2019-10-05 22:00:00 14.5 3 Nordeste 13 Nordeste 0 -- -- 94
2019-10-05 21:00:00 15.1 0 Calma 4 Noroeste 0 -- -- 93
2019-10-05 20:00:00 15.6 0 Calma 4 Este 0 -- -- 91
2019-10-05 19:00:00 16.4 2 Noroeste 7 Sudoeste 0 -- -- 87
2019-10-05 18:00:00 17 2 Oeste 9 Sudoeste 0 -- -- 84
2019-10-05 17:00:00 17.3 3 Sur 9 Oeste 0 -- -- 82
2019-10-05 16:00:00 17.6 7 Sudoeste 11 Sudoeste 0 -- -- 80
2019-10-05 15:00:00 17.2 3 Sudoeste 9 Sudoeste 0 -- -- 81
2019-10-05 14:00:00 16.8 4 Sudoeste 9 Sudoeste 0 -- -- 81
2019-10-05 13:00:00 17 4 Sur 7 Sur 0 -- -- 81
2019-10-05 12:00:00 15.5 0 Calma 4 Sur 0 -- -- 86
2019-10-05 11:00:00 14.8 0 Calma 3 Sudoeste 0 -- -- 96
2019-10-05 10:00:00 14 0 Calma 3 Sudoeste 0 -- -- 97
2019-10-05 09:00:00 13.6 0 Calma 3 Este 0 -- -- 100
2019-10-05 08:00:00 13.4 0 Calma 4 Nordeste 0 -- -- 99
2019-10-05 07:00:00 13.5 0 Calma 3 Nordeste 0 -- -- 100
2019-10-05 06:00:00 13.5 0 Calma 2 Nordeste 0 -- -- 99
2019-10-05 05:00:00 13.5 0 Calma 3 Nordeste 0 -- -- 99
2019-10-05 04:00:00 13.5 0 Calma 3 Nordeste 0 -- -- 99
2019-10-05 03:00:00 13.6 0 Calma 2 Este 0 -- -- 99
2019-10-05 02:00:00 13.6 2 Nordeste 3 Nordeste 0 -- -- 99
2019-10-05 01:00:00 13.8 0 Calma 4 Este 0 -- -- 99
2019-10-05 00:00:00 13.9 0 Calma 4 Sudeste 0 -- -- 99
2019-10-04 23:00:00 14 0 Calma 6 Oeste 0 -- -- 98
2019-10-04 22:00:00 14.3 0 Calma 6 Oeste 0 -- -- 99
2019-10-04 21:00:00 14.4 0 Calma 7 Noroeste 0 -- -- 98
2019-10-04 20:00:00 14.9 0 Calma 5 Oeste 0.2 -- -- 99
2019-10-04 19:00:00 15.2 0 Calma 4 Sudoeste 0 -- -- 98
2019-10-04 18:00:00 15.2 2 Sudoeste 5 Oeste 0 -- -- 99
2019-10-04 17:00:00 15.1 3 Oeste 10 Oeste 0.2 -- -- 99
2019-10-04 16:00:00 15.5 5 Oeste 12 Sudoeste 0.2 -- -- 97
2019-10-04 15:00:00 16.2 5 Oeste 18 Noroeste 0 -- -- 94
2019-10-04 14:00:00 17.7 4 Sur 11 Sudoeste 0 -- -- 85
2019-10-04 13:00:00 17.1 3 Sudoeste 6 Sur 0 -- -- 94
2019-10-04 12:00:00 16.1 0 Calma 6 Oeste 0 -- -- 97
2019-10-04 11:00:00 15.5 0 Calma 4 Sudeste 0 -- -- 98
2019-10-04 10:00:00 15.2 0 Calma 4 Sudeste 0 -- -- 97
2019-10-04 09:00:00 15.2 0 Calma 3 Nordeste 0.2 -- -- 96
2019-10-04 08:00:00 15.3 0 Calma 4 Nordeste 0 -- -- 95
2019-10-04 07:00:00 15.6 0 Calma 4 Sudoeste 0 -- -- 91
2019-10-04 06:00:00 15.8 0 Calma 4 Nordeste 0 -- -- 95
2019-10-04 05:00:00 15.4 2 Noroeste 9 Noroeste 0 -- -- 89
2019-10-04 04:00:00 15.3 0 Calma 5 Sur 0 -- -- 90
2019-10-04 03:00:00 15.4 0 Calma 5 Este 0 -- -- 90
2019-10-04 02:00:00 15.1 2 Norte 4 Oeste 0 -- -- 87
2019-10-04 01:00:00 15.5 0 Calma 7 Norte 0 -- -- 87
2019-10-04 00:00:00 16.2 3 Este 9 Sudoeste 0 -- -- 83
2019-10-03 23:00:00 15.6 3 Oeste 9 Oeste 0 -- -- 83
2019-10-03 22:00:00 15.1 3 Sur 9 Sudoeste 0 -- -- 88
2019-10-03 21:00:00 15.7 3 Noroeste 8 Oeste 0 -- -- 84
2019-10-03 20:00:00 17.4 3 Sur 8 Sudeste 0 -- -- 78
2019-10-03 19:00:00 22.1 3 Este 17 Oeste 0 -- -- 60
2019-10-03 18:00:00 23.1 8 Oeste 21 Oeste 0 -- -- 54
2019-10-03 17:00:00 24 9 Oeste 19 Oeste 0 -- -- 49
2019-10-03 16:00:00 24.7 9 Oeste 23 Oeste 0 -- -- 51
2019-10-03 15:00:00 25 10 Sur 17 Sudoeste 0 -- -- 57
2019-10-03 14:00:00 22.5 6 Sudoeste 17 Este 0 -- -- 60
2019-10-03 13:00:00 20.9 8 Sudoeste 15 Sudoeste 0 -- -- 63
2019-10-03 12:00:00 18.5 4 Sur 9 Sur 0 -- -- 67
2019-10-03 11:00:00 15.3 3 Sudeste 10 Sur 0 -- -- 78
2019-10-03 10:00:00 11.4 2 Oeste 4 Noroeste 0 -- -- 94
2019-10-03 09:00:00 9.8 3 Sur 7 Sudeste 0 -- -- 100
2019-10-03 08:00:00 9.5 3 Noroeste 5 Oeste 0 -- -- 99
2019-10-03 07:00:00 9.5 0 Calma 4 Norte 0 -- -- 99
2019-10-03 06:00:00 10.2 0 Calma 3 Nordeste 0 -- -- 99
2019-10-03 05:00:00 10.9 0 Calma 3 Oeste 0 -- -- 100
2019-10-03 04:00:00 11.2 0 Calma 4 Este 0 -- -- 99
2019-10-03 03:00:00 12.2 0 Calma 4 Nordeste 0 -- -- 98
2019-10-03 02:00:00 13.9 0 Calma 3 Nordeste 0 -- -- 96
2019-10-03 01:00:00 14.4 0 Calma 3 Este 0 -- -- 95
2019-10-03 00:00:00 14.7 0 Calma 3 Sudoeste 0 -- -- 94
2019-10-02 23:00:00 14.8 0 Calma 3 Este 0 -- -- 93
2019-10-02 22:00:00 15 0 Calma 5 Noroeste 0 -- -- 92
2019-10-02 21:00:00 15.5 0 Calma 8 Sudoeste 0 -- -- 89
2019-10-02 20:00:00 16 5 Oeste 10 Oeste 0 -- -- 84
2019-10-02 19:00:00 17.3 5 Oeste 17 Sudoeste 0 -- -- 80
2019-10-02 18:00:00 19 4 Noroeste 18 Sudoeste 0 -- -- 73
2019-10-02 17:00:00 20.4 6 Sudoeste 15 Sudoeste 0 -- -- 62
2019-10-02 16:00:00 21.5 7 Sudoeste 14 Sudoeste 0 -- -- 60
2019-10-02 15:00:00 19.2 4 Sur 10 Nordeste 0 -- -- 60
2019-10-02 14:00:00 18.4 5 Sur 10 Sur 0 -- -- 66
2019-10-02 13:00:00 17.3 3 Sudeste 6 Sudeste 0 -- -- 71
2019-10-02 12:00:00 16.2 3 Sudoeste 10 Este 0 -- -- 77
2019-10-02 11:00:00 14.7 3 Sudeste 7 Sur 0 -- -- 83
2019-10-02 10:00:00 13.4 0 Calma 4 Sudeste 0 -- -- 93
2019-10-02 09:00:00 13.3 2 Norte 5 Nordeste 0 -- -- 90
2019-10-02 08:00:00 13.8 2 Nordeste 12 Este 0 -- -- 86
2019-10-02 07:00:00 15.1 4 Nordeste 17 Nordeste 0 -- -- 71
2019-10-02 06:00:00 14.9 5 Nordeste 11 Nordeste 0 -- -- 70
2019-10-02 05:00:00 14.8 4 Norte 13 Norte 0 -- -- 70
2019-10-02 04:00:00 14.9 5 Norte 9 Nordeste 0 -- -- 75
2019-10-02 03:00:00 14.9 4 Norte 14 Nordeste 0 -- -- 73
2019-10-02 02:00:00 13.9 4 Sudeste 9 Norte 0 -- -- 89
2019-10-02 01:00:00 15.3 3 Norte 11 Nordeste 0 -- -- 83
2019-10-02 00:00:00 15.6 3 Nordeste 12 Oeste 0 -- -- 83
2019-10-01 23:00:00 16 4 Noroeste 10 Norte 0 -- -- 85
2019-10-01 22:00:00 16.2 3 Norte 14 Nordeste 0 -- -- 85
2019-10-01 21:00:00 16.8 3 Oeste 10 Noroeste 0 -- -- 81
2019-10-01 20:00:00 17.7 3 Nordeste 11 Norte 0 -- -- 78
2019-10-01 19:00:00 18.6 4 Sudeste 15 Oeste 0 -- -- 78
2019-10-01 18:00:00 19.8 5 Oeste 15 Oeste 0 -- -- 74
2019-10-01 17:00:00 22.3 5 Oeste 19 Oeste 0 -- -- 63
2019-10-01 16:00:00 23.7 8 Sudoeste 23 Noroeste 0 -- -- 63
2019-10-01 15:00:00 24.7 5 Sudeste 18 Oeste 0 -- -- 59
2019-10-01 14:00:00 23.7 9 Sudoeste 24 Sudoeste 0 -- -- 64
2019-10-01 13:00:00 22.8 8 Sur 13 Sudoeste 0 -- -- 69
2019-10-01 12:00:00 19.5 3 Sudoeste 8 Sudoeste 0 -- -- 86
2019-10-01 11:00:00 16.8 2 Este 4 Este 0 -- -- 96
2019-10-01 10:00:00 16.4 0 Calma 5 Norte 0 -- -- 99
2019-10-01 09:00:00 14.7 3 Nordeste 10 Noroeste 0 -- -- 100
2019-10-01 08:00:00 13.9 0 Calma 6 Norte 0 -- -- 100
2019-10-01 07:00:00 14.3 0 Calma 6 Oeste 0 -- -- 99
2019-10-01 06:00:00 15.1 0 Calma 5 Oeste 0 -- -- 98
2019-10-01 05:00:00 15.8 0 Calma 9 Noroeste 0 -- -- 100
2019-10-01 04:00:00 15.1 2 Nordeste 7 Nordeste 0 -- -- 100
2019-10-01 03:00:00 15.3 2 Este 6 Nordeste 0 -- -- 100
2019-10-01 02:00:00 15.3 2 Norte 4 Norte 0 -- -- 98
2019-10-01 01:00:00 16 0 Calma 6 Norte 0 -- -- 96
2019-10-01 00:00:00 16.5 0 Calma 5 Nordeste 0 -- -- 95
2019-09-30 23:00:00 17.4 3 Nordeste 5 Oeste 0 -- -- 91
2019-09-30 22:00:00 19 3 Nordeste 6 Este 0 -- -- 88
2019-09-30 21:00:00 19 0 Calma 12 Noroeste 0 -- -- 88
2019-09-30 20:00:00 21.3 4 Noroeste 15 Oeste 0 -- -- 76
2019-09-30 19:00:00 24.4 6 Sudoeste 19 Oeste 0 -- -- 67
2019-09-30 18:00:00 25.9 8 Oeste 22 Oeste 0 -- -- 63
2019-09-30 17:00:00 27.5 10 Oeste 21 Oeste 0 -- -- 59
2019-09-30 16:00:00 27.8 10 Sudoeste 30 Oeste 0 -- -- 60
2019-09-30 15:00:00 27.7 11 Sudoeste 21 Sudoeste 0 -- -- 58
2019-09-30 14:00:00 26.1 10 Sudoeste 21 Oeste 0 -- -- 62
2019-09-30 13:00:00 24.5 7 Sudoeste 12 Sudoeste 0 -- -- 63
2019-09-30 12:00:00 22 5 Sudoeste 13 Oeste 0 -- -- 71
2019-09-30 11:00:00 19.2 4 Sudoeste 8 Sudeste 0 -- -- 73
2019-09-30 10:00:00 15.7 0 Calma 8 Sur 0 -- -- 84
2019-09-30 09:00:00 13.5 0 Calma 6 Norte 0 -- -- 93
2019-09-30 08:00:00 13.9 3 Sudoeste 10 Noroeste 0 -- -- 91
2019-09-30 07:00:00 13.7 0 Calma 7 Nordeste 0 -- -- 96
2019-09-30 06:00:00 13.3 0 Calma 6 Nordeste 0 -- -- 100
2019-09-30 05:00:00 13.5 0 Calma 4 Nordeste 0 -- -- 100
2019-09-30 04:00:00 14.4 0 Calma 6 Nordeste 0 -- -- 98
2019-09-30 03:00:00 15 3 Nordeste 6 Oeste 0 -- -- 100
2019-09-30 02:00:00 15.6 0 Calma 6 Sudoeste 0 -- -- 97
2019-09-30 01:00:00 16.2 2 Norte 6 Norte 0 -- -- 96
2019-09-30 00:00:00 17.7 0 Calma 5 Sudeste 0 -- -- 94
2019-09-29 23:00:00 18.2 0 Calma 3 Este 0 -- -- 93
2019-09-29 22:00:00 18.5 0 Calma 5 Nordeste 0 -- -- 91
2019-09-29 21:00:00 18.9 2 Este 17 Sudoeste 0 -- -- 88
2019-09-29 20:00:00 20.5 5 Oeste 16 Oeste 0 -- -- 80
2019-09-29 19:00:00 25.3 5 Sudoeste 11 Sudoeste 0 -- -- 63
2019-09-29 18:00:00 25.9 5 Sudoeste 11 Sudoeste 0 -- -- 64
2019-09-29 17:00:00 24.6 3 Oeste 13 Noroeste 0 -- -- 62
2019-09-29 16:00:00 26.8 5 Noroeste 21 Oeste 0 -- -- 52
2019-09-29 15:00:00 26.4 8 Oeste 18 Este 0 -- -- 45
2019-09-29 14:00:00 25 10 Oeste 20 Oeste 0 -- -- 50
2019-09-29 13:00:00 24 4 Sur 9 Sudoeste 0 -- -- 58
2019-09-29 12:00:00 20.8 3 Sudeste 6 Sur 0 -- -- 63
2019-09-29 11:00:00 17.6 3 Sur 6 Sudoeste 0 -- -- 75
2019-09-29 10:00:00 14.1 0 Calma 6 Oeste 0 -- -- 83
2019-09-29 09:00:00 12.6 2 Noroeste 10 Oeste 0 -- -- 77
2019-09-29 08:00:00 12.3 4 Oeste 10 Sudoeste 0 -- -- 72
2019-09-29 07:00:00 11.4 3 Norte 7 Noroeste 0 -- -- 84
2019-09-29 06:00:00 10.1 0 Calma 5 Nordeste 0 -- -- 94
2019-09-29 05:00:00 10.3 0 Calma 8 Oeste 0 -- -- 94
2019-09-29 04:00:00 11.1 2 Nordeste 7 Oeste 0 -- -- 95
2019-09-29 03:00:00 11.1 2 Nordeste 6 Oeste 0 -- -- 97
2019-09-29 02:00:00 11.6 0 Calma 6 Oeste 0 -- -- 97
2019-09-29 01:00:00 12 2 Norte 5 Nordeste 0 -- -- 99
2019-09-29 00:00:00 12.6 0 Calma 7 Norte 0 -- -- 98
2019-09-28 23:00:00 13 0 Calma 5 Oeste 0 -- -- 97
2019-09-28 22:00:00 13.9 0 Calma 4 Este 0 -- -- 97
2019-09-28 21:00:00 14.8 3 Nordeste 5 Nordeste 0 -- -- 93
2019-09-28 20:00:00 17.5 0 Calma 7 Sudoeste 0 -- -- 84
2019-09-28 19:00:00 22.1 2 Sur 10 Sudoeste 0 -- -- 68
2019-09-28 18:00:00 22.7 8 Sur 20 Sudoeste 0 -- -- 66
2019-09-28 17:00:00 23.5 11 Sur 21 Oeste 0 -- -- 65
2019-09-28 16:00:00 22.6 11 Sudoeste 24 Sudoeste 0 -- -- 62
2019-09-28 15:00:00 22.4 11 Sudoeste 22 Sudoeste 0 -- -- 63
2019-09-28 14:00:00 21.6 10 Sudoeste 17 Oeste 0 -- -- 67
2019-09-28 13:00:00 19.9 6 Oeste 15 Sudoeste 0 -- -- 70
2019-09-28 12:00:00 18.8 8 Sudoeste 15 Sudoeste 0 -- -- 75
2019-09-28 11:00:00 17.1 3 Sur 6 Sudeste 0 -- -- 82
2019-09-28 10:00:00 14.6 0 Calma 3 Sudoeste 0 -- -- 96
2019-09-28 09:00:00 13.7 0 Calma 3 Nordeste 0 -- -- 98
2019-09-28 08:00:00 13.6 0 Calma 2 Nordeste 0 -- -- 97
2019-09-28 07:00:00 13.9 2 Noroeste 6 Oeste 0 -- -- 97
2019-09-28 06:00:00 14 3 Noroeste 5 Noroeste 0 -- -- 96
2019-09-28 05:00:00 14.1 0 Calma 5 Noroeste 0 -- -- 97
2019-09-28 04:00:00 14.1 0 Calma 3 Norte 0 -- -- 97
2019-09-28 03:00:00 14.2 0 Calma 2 Nordeste 0 -- -- 97
2019-09-28 02:00:00 14.3 0 Calma 3 Norte 0 -- -- 97
2019-09-28 01:00:00 14.3 0 Calma 3 Noroeste 0 -- -- 96
2019-09-28 00:00:00 14.2 0 Calma 3 Nordeste 0 -- -- 97
2019-09-27 23:00:00 14.2 0 Calma 3 Nordeste 0 -- -- 97
2019-09-27 22:00:00 14.2 0 Calma 4 Nordeste 0 -- -- 96
2019-09-27 21:00:00 14.3 0 Calma 4 Sur 0 -- -- 95
2019-09-27 20:00:00 14.6 0 Calma 15 Nordeste 0 -- -- 94
2019-09-27 19:00:00 14.9 4 Sudeste 13 Este 0.2 -- -- 92
2019-09-27 18:00:00 16 6 Noroeste 18 Oeste 0 -- -- 95
2019-09-27 17:00:00 17.9 3 Sudoeste 13 Sudoeste 0 -- -- 87
2019-09-27 16:00:00 19.8 7 Oeste 26 Oeste 0 -- -- 79
2019-09-27 15:00:00 22.9 8 Sudoeste 25 Noroeste 0 -- -- 71
2019-09-27 14:00:00 22.6 7 Oeste 18 Noroeste 0 -- -- 67
2019-09-27 13:00:00 21.5 6 Sudoeste 14 Sudoeste 0 -- -- 71
2019-09-27 12:00:00 18.9 5 Noroeste 10 Oeste 0 -- -- 78
2019-09-27 11:00:00 16.5 2 Sur 8 Oeste 0 -- -- 87
2019-09-27 10:00:00 15.5 2 Sur 6 Norte 0 -- -- 90
2019-09-27 09:00:00 15 0 Calma 8 Sur 0 -- -- 89
2019-09-27 08:00:00 14.6 3 Nordeste 17 Sudeste 0 -- -- 88
2019-09-27 07:00:00 13.5 6 Sudoeste 13 Sur 0 -- -- 93
2019-09-27 06:00:00 12.8 0 Calma 10 Nordeste 0 -- -- 96
2019-09-27 05:00:00 13.4 5 Sudoeste 9 Sudoeste 0 -- -- 97
2019-09-27 04:00:00 12.9 0 Calma 8 Oeste 0 -- -- 98
2019-09-27 03:00:00 13.6 3 Oeste 14 Sur 0 -- -- 99
2019-09-27 02:00:00 13.1 3 Nordeste 5 Este 0 -- -- 99
2019-09-27 01:00:00 13.9 0 Calma 5 Norte 0 -- -- 98
2019-09-27 00:00:00 15.6 3 Nordeste 4 Nordeste 0 -- -- 94
2019-09-26 23:00:00 15.9 2 Oeste 5 Noroeste 0 -- -- 93
2019-09-26 22:00:00 15.6 0 Calma 3 Nordeste 0 -- -- 96
2019-09-26 21:00:00 15.3 0 Calma 11 Oeste 0 -- -- 94
2019-09-26 20:00:00 18.3 2 Este 9 Oeste 0 -- -- 84
2019-09-26 19:00:00 21.8 4 Sudoeste 13 Sudoeste 0 -- -- 74
2019-09-26 18:00:00 23.5 5 Sudoeste 19 Oeste 0 -- -- 67
2019-09-26 17:00:00 24 12 Sudoeste 23 Oeste 0 -- -- 66
2019-09-26 16:00:00 23.1 9 Oeste 23 Sudoeste 0 -- -- 68
2019-09-26 15:00:00 23.4 11 Sudoeste 21 Oeste 0 -- -- 65
2019-09-26 14:00:00 22.3 8 Sur 15 Sudoeste 0 -- -- 70
2019-09-26 13:00:00 20.5 9 Sudoeste 16 Oeste 0 -- -- 73
2019-09-26 12:00:00 17.9 6 Sudoeste 12 Sudoeste 0 -- -- 82
2019-09-26 11:00:00 14.4 0 Calma 4 Sur 0 -- -- 95
2019-09-26 10:00:00 12.7 0 Calma 3 Nordeste 0 -- -- 100
2019-09-26 09:00:00 11.7 0 Calma 4 Norte 0 -- -- 100
2019-09-26 08:00:00 10.7 0 Calma 5 Oeste 0 -- -- 100
2019-09-26 07:00:00 10.5 0 Calma 3 Nordeste 0 -- -- 100
2019-09-26 06:00:00 10.9 0 Calma 4 Nordeste 0 -- -- 100
2019-09-26 05:00:00 11.1 2 Noroeste 5 Nordeste 0 -- -- 100
2019-09-26 04:00:00 11.5 2 Norte 4 Nordeste 0 -- -- 100
2019-09-26 03:00:00 11.8 3 Nordeste 4 Nordeste 0 -- -- 99
2019-09-26 02:00:00 12.2 0 Calma 6 Noroeste 0 -- -- 98
2019-09-26 01:00:00 12.4 0 Calma 4 Nordeste 0 -- -- 99
2019-09-26 00:00:00 12.8 0 Calma 4 Norte 0 -- -- 98
2019-09-25 23:00:00 13.7 3 Norte 4 Nordeste 0 -- -- 95
2019-09-25 22:00:00 15 4 Norte 6 Norte 0 -- -- 93
2019-09-25 21:00:00 16.1 2 Noroeste 4 Sudoeste 0 -- -- 90
2019-09-25 20:00:00 18.1 0 Calma 5 Oeste 0 -- -- 83
2019-09-25 19:00:00 19 3 Sudoeste 12 Este 0 -- -- 74
2019-09-25 18:00:00 19.6 6 Oeste 14 Sudoeste 0 -- -- 71
2019-09-25 17:00:00 20.6 0 Calma 11 Sudoeste 0 -- -- 67
2019-09-25 16:00:00 20.4 4 Oeste 16 Sudoeste 0 -- -- 64
2019-09-25 15:00:00 21.8 8 Sudoeste 17 Sudoeste 0 -- -- 64
2019-09-25 14:00:00 21.9 8 Sudoeste 15 Sur 0 -- -- 60
2019-09-25 13:00:00 21 5 Sudoeste 16 Sudoeste 0 -- -- 62
2019-09-25 12:00:00 19.6 3 Sur 9 Oeste 0 -- -- 72
2019-09-25 11:00:00 16.3 3 Sudoeste 8 Sur 0 -- -- 78
2019-09-25 10:00:00 13.5 0 Calma 6 Sudoeste 0 -- -- 93
2019-09-25 09:00:00 12.4 0 Calma 8 Este 0 -- -- 95
2019-09-25 08:00:00 11.9 3 Norte 8 Noroeste 0 -- -- 97
2019-09-25 07:00:00 10.9 2 Nordeste 5 Sudoeste 0 -- -- 100
2019-09-25 06:00:00 11.1 2 Nordeste 8 Norte 0 -- -- 96
2019-09-25 05:00:00 12.6 2 Oeste 8 Sur 0 -- -- 95
2019-09-25 04:00:00 12.3 3 Noroeste 7 Norte 0 -- -- 99
2019-09-25 03:00:00 12.3 2 Noroeste 6 Sur 0 -- -- 99
2019-09-25 02:00:00 12.1 2 Nordeste 5 Sudoeste 0 -- -- 98
2019-09-25 01:00:00 13.1 0 Calma 5 Nordeste 0 -- -- 98
2019-09-25 00:00:00 13.7 0 Calma 4 Nordeste 0 -- -- 98
2019-09-24 23:00:00 14.4 0 Calma 5 Este 0 -- -- 96
2019-09-24 22:00:00 15 0 Calma 9 Norte 0 -- -- 94
2019-09-24 21:00:00 15.4 3 Norte 8 Sudeste 0 -- -- 92
2019-09-24 20:00:00 15.9 2 Norte 3 Oeste 0 -- -- 96
2019-09-24 19:00:00 16.1 0 Calma 12 Oeste 0.2 -- -- 94
2019-09-24 18:00:00 16.9 5 Oeste 9 Oeste 0 -- -- 93
2019-09-24 17:00:00 17.4 4 Oeste 10 Sudoeste 0.2 -- -- 94
2019-09-24 16:00:00 17.5 3 Sur 12 Oeste 0 -- -- 94
2019-09-24 15:00:00 17.7 2 Este 11 Noroeste 0 -- -- 90
2019-09-24 14:00:00 17.6 3 Este 18 Oeste 0 -- -- 88
2019-09-24 13:00:00 18.7 6 Sudoeste 17 Noroeste 0 -- -- 87
2019-09-24 12:00:00 19.4 9 Oeste 18 Oeste 0 -- -- 87
2019-09-24 11:00:00 18.7 6 Oeste 21 Norte 0 -- -- 89
2019-09-24 10:00:00 18 5 Sudoeste 12 Oeste 0 -- -- 94
2019-09-24 09:00:00 17.3 2 Este 9 Norte 0 -- -- 93
2019-09-24 08:00:00 17.6 2 Norte 9 Nordeste 0 -- -- 88
2019-09-24 07:00:00 17.8 5 Sudoeste 28 Este 0.2 -- -- 86
2019-09-24 06:00:00 18.8 9 Este 33 Sur 0.6 -- -- 79
2019-09-24 05:00:00 21.1 18 Sudeste 42 Este 0.2 -- -- 66
2019-09-24 04:00:00 22.5 19 Sudeste 52 Sudeste 0 -- -- 55
2019-09-24 03:00:00 22.4 16 Sudeste 46 Sudeste 0 -- -- 56
2019-09-24 02:00:00 22.1 19 Sur 50 Sur 0 -- -- 55
2019-09-24 01:00:00 21.3 17 Sudeste 41 Sudeste 0 -- -- 55
2019-09-24 00:00:00 21.8 22 Este 45 Sudeste 0 -- -- 55
2019-09-23 23:00:00 21 21 Sudeste 47 Este 0 -- -- 60
2019-09-23 22:00:00 19.6 16 Sudeste 37 Sudeste 0 -- -- 68
2019-09-23 21:00:00 18.3 13 Este 39 Sudeste 0.2 -- -- 74
2019-09-23 20:00:00 17.6 11 Sudeste 27 Este 0.8 -- -- 83
2019-09-23 19:00:00 18.3 3 Noroeste 8 Este 0 -- -- 80
2019-09-23 18:00:00 19.2 3 Norte 9 Oeste 0.2 -- -- 85
2019-09-23 17:00:00 20.7 4 Oeste 14 Oeste 0 -- -- 75
2019-09-23 16:00:00 20.5 5 Oeste 22 Oeste 0 -- -- 62
2019-09-23 15:00:00 21.5 9 Sudeste 24 Este 0 -- -- 60
2019-09-23 14:00:00 20.2 5 Sudeste 17 Oeste 0 -- -- 66
2019-09-23 13:00:00 19 5 Sudoeste 15 Sur 0 -- -- 66
2019-09-23 12:00:00 16.1 3 Sur 6 Sudoeste 0 -- -- 89
2019-09-23 11:00:00 14.8 0 Calma 9 Nordeste 0 -- -- 88
2019-09-23 10:00:00 13.5 0 Calma 9 Norte 0 -- -- 96
2019-09-23 09:00:00 12.3 0 Calma 6 Norte 0.2 -- -- 97
2019-09-23 08:00:00 11.7 0 Calma 4 Nordeste 0 -- -- 98
2019-09-23 07:00:00 11.6 0 Calma 2 Nordeste 0 -- -- 99
2019-09-23 06:00:00 11.1 0 Calma 4 Nordeste 0 -- -- 100
2019-09-23 05:00:00 11.1 0 Calma 5 Nordeste 0 -- -- 98
2019-09-23 04:00:00 11.7 3 Nordeste 6 Nordeste 0 -- -- 98
2019-09-23 03:00:00 11.4 0 Calma 4 Norte 0 -- -- 98
2019-09-23 02:00:00 12.8 0 Calma 2 Norte 0 -- -- 94
2019-09-23 01:00:00 13.1 0 Calma 4 Norte 0 -- -- 98
2019-09-23 00:00:00 12.1 2 Nordeste 5 Nordeste 0 -- -- 98
2019-09-22 23:00:00 12.7 0 Calma 7 Norte 0 -- -- 93
2019-09-22 22:00:00 14.7 3 Sur 8 Sudoeste 0 -- -- 89
2019-09-22 21:00:00 15.2 0 Calma 10 Noroeste 0 -- -- 86
2019-09-22 20:00:00 17.3 3 Norte 18 Noroeste 0 -- -- 72
2019-09-22 19:00:00 18.1 6 Oeste 21 Noroeste 0 -- -- 69
2019-09-22 18:00:00 20.9 5 Sur 17 Sudoeste 0 -- -- 68
2019-09-22 17:00:00 21 5 Oeste 17 Noroeste 0 -- -- 60
2019-09-22 16:00:00 20.8 7 Oeste 27 Oeste 0 -- -- 64
2019-09-22 15:00:00 21.8 7 Oeste 21 Oeste 0 -- -- 64
2019-09-22 14:00:00 21.6 8 Oeste 21 Sudoeste 0 -- -- 63
2019-09-22 13:00:00 21.3 8 Sudoeste 19 Oeste 0 -- -- 62
2019-09-22 12:00:00 18.8 10 Oeste 16 Oeste 0 -- -- 66
2019-09-22 11:00:00 17.2 6 Sudeste 20 Sudeste 0 -- -- 71
2019-09-22 10:00:00 13.5 5 Este 10 Sudeste 0 -- -- 88
2019-09-22 09:00:00 11.8 3 Norte 11 Oeste 0 -- -- 95
2019-09-22 08:00:00 11.9 2 Sudeste 9 Sudeste 0 -- -- 95
2019-09-22 07:00:00 13.5 3 Este 7 Sur 0 -- -- 96
2019-09-22 06:00:00 15 3 Nordeste 6 Noroeste 0 -- -- 99
2019-09-22 05:00:00 15.3 2 Noroeste 5 Noroeste 0 -- -- 99
2019-09-22 04:00:00 15.3 0 Calma 8 Oeste 0 -- -- 98
2019-09-22 03:00:00 15.6 0 Calma 9 Norte 0 -- -- 98
2019-09-22 02:00:00 15.9 0 Calma 10 Noroeste 0.6 -- -- 96
2019-09-22 01:00:00 16.5 5 Oeste 21 Oeste 0 -- -- 93
2019-09-22 00:00:00 18.3 8 Sudoeste 29 Este 0 -- -- 83
2019-09-21 23:00:00 21 15 Sudeste 39 Sudeste 0 -- -- 69
2019-09-21 22:00:00 21.5 19 Sudeste 48 Sudeste 0 -- -- 68
2019-09-21 21:00:00 22.1 16 Sudeste 41 Este 0 -- -- 63
2019-09-21 20:00:00 21.9 20 Sur 56 Sur 0 -- -- 65
2019-09-21 19:00:00 22.8 19 Sudeste 47 Sur 0 -- -- 61
2019-09-21 18:00:00 24.4 21 Sudeste 55 Sudeste 0 -- -- 59
2019-09-21 17:00:00 23.2 16 Sudeste 39 Sur 0 -- -- 60
2019-09-21 16:00:00 23.3 14 Sudeste 55 Sudeste 0 -- -- 58
2019-09-21 15:00:00 25 18 Sudeste 58 Sudeste 0 -- -- 54
2019-09-21 14:00:00 23.4 25 Sudeste 60 Sur 0 -- -- 55
2019-09-21 13:00:00 21.6 21 Sur 45 Sudeste 0 -- -- 60
2019-09-21 12:00:00 22 13 Sudeste 34 Sudeste 0 -- -- 57
2019-09-21 11:00:00 22.4 14 Sudeste 32 Este 0 -- -- 58
2019-09-21 10:00:00 20.2 13 Sudeste 33 Sudoeste 0 -- -- 64
2019-09-21 09:00:00 16.9 4 Este 34 Este 0 -- -- 81
2019-09-21 08:00:00 15.1 4 Nordeste 9 Norte 0 -- -- 100
2019-09-21 07:00:00 15.3 0 Calma 8 Sudeste 0 -- -- 99
2019-09-21 06:00:00 15.5 5 Nordeste 11 Sudoeste 0 -- -- 97
2019-09-21 05:00:00 15.7 2 Sudoeste 14 Noroeste 0 -- -- 95
2019-09-21 04:00:00 16.9 5 Nordeste 14 Nordeste 0 -- -- 87
2019-09-21 03:00:00 16.3 4 Oeste 13 Noroeste 0 -- -- 90
2019-09-21 02:00:00 16.4 4 Este 13 Noroeste 0 -- -- 92
2019-09-21 01:00:00 19.4 5 Noroeste 31 Este 0 -- -- 75
2019-09-21 00:00:00 22.4 6 Este 34 Este 0 -- -- 59
2019-09-20 23:00:00 21.8 11 Sudeste 30 Sudeste 0 -- -- 59
2019-09-20 22:00:00 22.4 12 Sudeste 40 Sur 0 -- -- 55
2019-09-20 21:00:00 22.4 22 Sur 46 Sur 0 -- -- 57
2019-09-20 20:00:00 22.6 3 Norte 6 Norte 0 -- -- 77
2019-09-20 19:00:00 27 0 Calma 10 Oeste 0 -- -- 62
2019-09-20 18:00:00 29.1 5 Oeste 18 Sudeste 0 -- -- 53
2019-09-20 17:00:00 29.9 8 Sudeste 21 Sur 0 -- -- 49
2019-09-20 16:00:00 28.9 9 Sudeste 26 Sur 0 -- -- 47
2019-09-20 15:00:00 28.6 9 Sudeste 23 Sur 0 -- -- 52
2019-09-20 14:00:00 27.1 6 Sudeste 18 Sur 0 -- -- 54
2019-09-20 13:00:00 26.7 7 Sudeste 28 Sur 0 -- -- 60
2019-09-20 12:00:00 23.3 3 Sur 9 Sur 0 -- -- 77
2019-09-20 11:00:00 20.5 3 Sudeste 6 Sudoeste 0 -- -- 81
2019-09-20 10:00:00 17.1 2 Sur 6 Nordeste 0 -- -- 90
2019-09-20 09:00:00 14.3 0 Calma 6 Nordeste 0 -- -- 99
2019-09-20 08:00:00 13.8 0 Calma 6 Noroeste 0 -- -- 99
2019-09-20 07:00:00 13.9 2 Oeste 6 Nordeste 0 -- -- 100
2019-09-20 06:00:00 13.9 0 Calma 4 Nordeste 0 -- -- 100
2019-09-20 05:00:00 14 0 Calma 6 Norte 0 -- -- 100
2019-09-20 04:00:00 14.4 4 Norte 6 Norte 0 -- -- 100
2019-09-20 03:00:00 14.5 0 Calma 4 Nordeste 0 -- -- 100
2019-09-20 02:00:00 15.5 0 Calma 2 Nordeste 0 -- -- 98
2019-09-20 01:00:00 16.5 0 Calma 3 Noroeste 0 -- -- 98
2019-09-20 00:00:00 16.2 0 Calma 3 Oeste 0 -- -- 99
2019-09-19 23:00:00 16.4 0 Calma 2 Sudoeste 0 -- -- 96
2019-09-19 22:00:00 17.8 0 Calma 3 Nordeste 0 -- -- 94
2019-09-19 21:00:00 18.7 0 Calma 5 Oeste 0 -- -- 91
2019-09-19 20:00:00 19.5 0 Calma 8 Nordeste 0 -- -- 89
2019-09-19 19:00:00 20.6 4 Oeste 17 Oeste 0 -- -- 83
2019-09-19 18:00:00 21.9 8 Oeste 24 Oeste 0 -- -- 79
2019-09-19 17:00:00 23.8 7 Oeste 24 Oeste 0 -- -- 74
2019-09-19 16:00:00 24 8 Nordeste 24 Oeste 0 -- -- 70
2019-09-19 15:00:00 23.3 8 Sudoeste 24 Oeste 0 -- -- 75
2019-09-19 14:00:00 23.3 11 Sudoeste 23 Sudoeste 0 -- -- 72
2019-09-19 13:00:00 22.2 10 Sudoeste 18 Sudoeste 0 -- -- 76
2019-09-19 12:00:00 19.9 8 Sudoeste 13 Sudoeste 0 -- -- 85
2019-09-19 11:00:00 17.7 2 Este 4 Este 0 -- -- 95
2019-09-19 10:00:00 16.1 2 Este 5 Sudoeste 0 -- -- 100
2019-09-19 09:00:00 16 0 Calma 5 Oeste 0 -- -- 100
2019-09-19 08:00:00 16 0 Calma 3 Nordeste 0 -- -- 100
2019-09-19 07:00:00 16.2 0 Calma 4 Oeste 0 -- -- 100
2019-09-19 06:00:00 16.6 0 Calma 2 Sudoeste 0 -- -- 99
2019-09-19 05:00:00 16.8 0 Calma 3 Noroeste 0 -- -- 99
2019-09-19 04:00:00 17 0 Calma 0 Calma 0 -- -- 99
2019-09-19 03:00:00 17.3 0 Calma 2 Sudeste 0 -- -- 98
2019-09-19 02:00:00 17.4 0 Calma 5 Oeste 0 -- -- 99
2019-09-19 01:00:00 17.6 0 Calma 6 Noroeste 0 -- -- 98
2019-09-19 00:00:00 17.9 0 Calma 4 Sudoeste 0 -- -- 97
2019-09-18 23:00:00 18.2 0 Calma 4 Sudoeste 0 -- -- 97
2019-09-18 22:00:00 18.4 0 Calma 6 Oeste 0 -- -- 97
2019-09-18 21:00:00 18.5 2 Sudoeste 10 Oeste 0 -- -- 96
2019-09-18 20:00:00 19 5 Noroeste 13 Oeste 0 -- -- 93
2019-09-18 19:00:00 19.7 4 Oeste 17 Oeste 0 -- -- 91
2019-09-18 18:00:00 21.3 6 Sudoeste 18 Sur 0 -- -- 85
2019-09-18 17:00:00 23 5 Sudoeste 19 Oeste 0 -- -- 78
2019-09-18 16:00:00 22.7 6 Sur 17 Oeste 0 -- -- 81
2019-09-18 15:00:00 24 9 Sudoeste 19 Oeste 0 -- -- 75
2019-09-18 14:00:00 22.4 4 Norte 13 Sudoeste 0 -- -- 75
2019-09-18 13:00:00 21.8 4 Oeste 10 Oeste 0 -- -- 80
2019-09-18 12:00:00 19.4 2 Este 6 Sudoeste 0 -- -- 91
2019-09-18 11:00:00 17.5 0 Calma 4 Sur 0 -- -- 100
2019-09-18 10:00:00 16.7 0 Calma 4 Nordeste 0 -- -- 100
2019-09-18 09:00:00 15.7 2 Noroeste 6 Nordeste 0 -- -- 100
2019-09-18 08:00:00 15.5 2 Norte 6 Sudoeste 0 -- -- 100
2019-09-18 07:00:00 15.9 0 Calma 4 Nordeste 0 -- -- 100
2019-09-18 06:00:00 16.7 0 Calma 6 Nordeste 0 -- -- 99
2019-09-18 05:00:00 17.7 0 Calma 3 Este 0 -- -- 100
2019-09-18 04:00:00 17.9 0 Calma 3 Norte 0 -- -- 100
2019-09-18 03:00:00 17.9 0 Calma 5 Noroeste 0 -- -- 100
2019-09-18 02:00:00 17.8 0 Calma 4 Norte 0 -- -- 100
2019-09-18 01:00:00 18.2 0 Calma 5 Oeste 0 -- -- 100
2019-09-18 00:00:00 18.4 0 Calma 6 Noroeste 0 -- -- 100
2019-09-17 23:00:00 18.4 0 Calma 8 Oeste 0 -- -- 99
2019-09-17 22:00:00 18.6 2 Este 5 Nordeste 0 -- -- 99
2019-09-17 21:00:00 19.3 4 Noroeste 6 Norte 0 -- -- 97